createdAt,value
2022-07-25T14:55:47.187Z,41.30
2022-07-25T14:56:47.104Z,41.61
2022-07-25T14:57:47.111Z,41.99
2022-07-25T14:58:47.090Z,41.99
2022-07-25T14:59:47.057Z,41.20
2022-07-25T15:00:47.156Z,42.06
2022-07-25T15:01:47.055Z,41.46
2022-07-25T15:02:47.094Z,42.04
2022-07-25T15:03:47.058Z,40.66
2022-07-25T15:04:47.137Z,40.37
2022-07-25T15:05:47.028Z,40.08
2022-07-25T15:06:46.999Z,40.27
2022-07-25T15:07:47.010Z,40.19
2022-07-25T15:08:47.003Z,40.00
2022-07-25T15:09:55.863Z,40.39
2022-07-25T15:10:54.594Z,40.60
2022-07-25T15:11:54.730Z,41.77
2022-07-25T15:13:20.570Z,40.62
2022-07-25T15:13:47.937Z,41.57
2022-07-25T15:14:46.959Z,41.60
2022-07-25T15:15:46.945Z,40.52
2022-07-25T15:16:46.961Z,42.28
2022-07-25T15:17:46.985Z,41.79
2022-07-25T15:19:14.658Z,40.91
2022-07-25T15:19:47.875Z,40.72
2022-07-25T15:20:46.854Z,41.50
2022-07-25T15:21:46.844Z,42.25
2022-07-25T15:22:46.829Z,41.57
2022-07-25T15:23:46.820Z,41.36
2022-07-25T15:25:17.882Z,41.55
2022-07-25T15:26:04.076Z,42.02
2022-07-25T15:26:47.784Z,41.73
2022-07-25T15:27:46.782Z,40.08
2022-07-25T15:28:46.783Z,40.06
2022-07-25T15:29:46.759Z,39.47
2022-07-25T15:30:46.763Z,40.33
2022-07-25T15:31:46.817Z,40.42
2022-07-25T15:32:46.734Z,40.11
2022-07-25T15:33:46.721Z,39.90
2022-07-25T15:34:46.717Z,40.17
2022-07-25T15:35:46.697Z,38.54
2022-07-25T15:36:46.687Z,38.64
2022-07-25T15:37:46.696Z,39.14
2022-07-25T15:38:46.673Z,39.51
2022-07-25T15:39:46.664Z,38.75
2022-07-25T15:40:46.663Z,38.37
2022-07-25T15:41:46.644Z,37.59
2022-07-25T15:42:46.634Z,37.39
2022-07-25T15:43:46.622Z,37.32
2022-07-25T15:44:46.608Z,37.80
2022-07-25T15:45:46.598Z,38.87
2022-07-25T15:46:46.708Z,38.50
2022-07-25T15:47:50.849Z,38.31
2022-07-25T15:48:46.627Z,38.32
2022-07-25T15:49:46.559Z,37.64
2022-07-25T15:50:46.550Z,39.78
2022-07-25T15:51:46.550Z,39.03
2022-07-25T15:52:46.567Z,39.14
2022-07-25T15:53:46.518Z,39.65
2022-07-25T15:54:46.505Z,39.36
2022-07-25T15:55:46.497Z,39.94
2022-07-25T15:56:46.493Z,40.16
2022-07-25T15:57:46.490Z,40.45
2022-07-25T15:58:46.511Z,40.56
2022-07-25T15:59:46.463Z,39.31
2022-07-25T16:00:46.563Z,40.88
2022-07-25T16:01:46.441Z,40.89
2022-07-25T16:02:46.431Z,41.19
2022-07-25T16:03:46.478Z,41.77
2022-07-25T16:04:46.438Z,40.04
2022-07-25T16:05:46.406Z,42.58
2022-07-25T16:06:46.396Z,41.50
2022-07-25T16:07:46.380Z,41.91
2022-07-25T16:08:46.373Z,42.11
2022-07-25T16:09:46.386Z,42.69
2022-07-25T16:10:46.351Z,43.38
2022-07-25T16:11:46.333Z,43.49
2022-07-25T16:12:46.329Z,42.71
2022-07-25T16:13:46.317Z,42.13
2022-07-25T16:14:46.313Z,42.81
2022-07-25T16:15:46.410Z,42.35
2022-07-25T16:16:46.360Z,44.20
2022-07-25T16:17:46.280Z,44.69
2022-07-25T16:18:46.265Z,43.91
2022-07-25T16:19:46.272Z,44.13
2022-07-25T16:20:46.261Z,44.23
2022-07-25T16:21:46.242Z,44.73
2022-07-25T16:22:46.236Z,44.03
2022-07-25T16:23:46.216Z,44.52
2022-07-25T16:24:46.204Z,45.62
2022-07-25T16:25:46.210Z,46.23
2022-07-25T16:26:46.181Z,47.52
2022-07-25T16:27:46.170Z,48.74
2022-07-25T16:28:46.169Z,49.14
2022-07-25T16:29:46.193Z,51.81
2022-07-25T16:30:46.147Z,52.75
2022-07-25T16:31:46.485Z,57.54
2022-07-25T16:32:46.127Z,62.52
2022-07-25T16:33:47.288Z,64.12
2022-07-25T16:34:46.503Z,65.37
2022-07-25T16:35:46.303Z,66.39
2022-07-25T16:36:47.780Z,69.62
2022-07-25T16:37:46.085Z,70.94
2022-07-25T16:38:46.064Z,71.37
2022-07-25T16:39:46.875Z,73.00
2022-07-25T16:40:47.283Z,73.96
2022-07-25T16:41:48.237Z,69.59
2022-07-25T16:42:46.172Z,69.06
2022-07-25T16:43:46.365Z,69.13
2022-07-25T16:44:46.923Z,69.13
2022-07-25T16:45:46.013Z,68.73
2022-07-25T16:46:46.055Z,68.80
2022-07-25T16:47:46.910Z,66.82
2022-07-25T16:48:48.195Z,66.42
2022-07-25T16:49:46.058Z,65.20
2022-07-25T16:50:49.649Z,66.46
2022-07-25T16:51:54.525Z,70.91
2022-07-25T16:52:49.428Z,67.44
2022-07-25T16:53:50.329Z,66.35
2022-07-25T16:54:48.620Z,64.47
2022-07-25T16:56:50.265Z,65.73
2022-07-25T16:57:47.115Z,64.44
2022-07-25T16:58:48.751Z,68.70
2022-07-25T16:59:46.941Z,67.64
2022-07-25T17:00:45.956Z,69.72
2022-07-25T17:01:45.844Z,68.63
2022-07-25T17:02:46.403Z,64.67
2022-07-25T17:03:45.810Z,67.21
2022-07-25T17:04:45.837Z,66.22
2022-07-25T17:05:45.868Z,67.11
2022-07-25T17:06:46.046Z,62.33
2022-07-25T17:07:45.791Z,60.32
2022-07-25T17:08:45.949Z,59.83
2022-07-25T17:09:45.789Z,61.80
2022-07-25T17:10:45.904Z,57.62
2022-07-25T17:11:47.243Z,59.50
2022-07-25T17:12:45.718Z,56.63
2022-07-25T17:13:46.194Z,55.43
2022-07-25T17:14:46.392Z,54.56
2022-07-25T17:15:45.776Z,55.92
2022-07-25T17:16:45.661Z,55.82
2022-07-25T17:17:45.651Z,59.97
2022-07-25T17:18:45.648Z,60.30
2022-07-25T17:19:46.639Z,62.66
2022-07-25T17:20:48.035Z,62.90
2022-07-25T17:21:45.675Z,60.72
2022-07-25T17:22:49.286Z,62.50
2022-07-25T17:23:45.727Z,61.31
2022-07-25T17:24:46.287Z,58.54
2022-07-25T17:25:50.267Z,63.46
2022-07-25T17:26:47.812Z,63.98
2022-07-25T17:27:45.567Z,63.29
2022-07-25T17:28:45.539Z,64.51
2022-07-25T17:29:45.528Z,64.81
2022-07-25T17:30:46.924Z,65.13
2022-07-25T17:31:45.590Z,64.14
2022-07-25T17:32:45.565Z,64.14
2022-07-25T17:33:45.487Z,67.11
2022-07-25T17:34:45.832Z,65.43
2022-07-25T17:35:45.465Z,66.22
2022-07-25T17:36:45.469Z,67.44
2022-07-25T17:37:45.446Z,67.14
2022-07-25T17:38:45.431Z,66.65
2022-07-25T17:39:45.435Z,67.84
2022-07-25T17:40:45.881Z,66.25
2022-07-25T17:41:45.485Z,64.97
2022-07-25T17:42:45.720Z,66.65
2022-07-25T17:43:45.389Z,66.35
2022-07-25T17:44:45.487Z,67.44
2022-07-25T17:45:45.496Z,66.46
2022-07-25T17:46:45.444Z,65.43
2022-07-25T17:47:48.913Z,64.87
2022-07-25T17:48:47.754Z,64.38
2022-07-25T17:49:45.338Z,63.75
2022-07-25T17:50:45.318Z,64.05
2022-07-25T17:51:46.315Z,64.02
2022-07-25T17:52:45.294Z,62.01
2022-07-25T17:53:45.289Z,63.37
2022-07-25T17:54:48.018Z,62.38
2022-07-25T17:55:45.269Z,61.59
2022-07-25T17:56:45.256Z,62.12
2022-07-25T17:57:45.244Z,63.49
2022-07-25T17:58:45.262Z,64.51
2022-07-25T17:59:45.223Z,63.99
2022-07-25T18:00:45.200Z,63.10
2022-07-25T18:01:45.283Z,63.72
2022-07-25T18:02:45.241Z,64.35
2022-07-25T18:03:45.182Z,64.58
2022-07-25T18:04:45.177Z,65.17
2022-07-25T18:05:45.144Z,64.61
2022-07-25T18:06:45.222Z,64.64
2022-07-25T18:07:46.205Z,65.63
2022-07-25T18:08:45.122Z,66.46
2022-07-25T18:09:45.179Z,66.25
2022-07-25T18:10:45.092Z,66.19
2022-07-25T18:11:45.793Z,66.58
2022-07-25T18:12:45.085Z,65.59
2022-07-25T18:13:45.338Z,67.08
2022-07-25T18:14:45.069Z,66.19
2022-07-25T18:15:45.183Z,66.91
2022-07-25T18:16:54.019Z,66.68
2022-07-25T18:18:55.789Z,66.52
2022-07-25T18:19:55.375Z,66.22
2022-07-25T18:20:55.401Z,65.33
2022-07-25T18:21:55.436Z,65.62
2022-07-25T18:22:55.349Z,67.01
2022-07-25T18:23:55.307Z,66.42
2022-07-25T18:24:55.335Z,65.82
2022-07-25T18:25:55.293Z,66.22
2022-07-25T18:26:55.635Z,65.46
2022-07-25T18:27:55.286Z,65.75
2022-07-25T18:28:55.770Z,65.46
2022-07-25T18:29:55.259Z,67.05
2022-07-25T18:30:55.310Z,67.14
2022-07-25T18:31:55.237Z,66.45
2022-07-25T18:32:55.386Z,66.45
2022-07-25T18:33:55.225Z,66.94
2022-07-25T18:35:00.153Z,66.15
2022-07-25T18:35:58.228Z,66.35
2022-07-25T18:36:55.186Z,66.18
2022-07-25T18:37:55.171Z,66.38
2022-07-25T18:38:55.169Z,66.38
2022-07-25T18:39:55.278Z,66.38
2022-07-25T18:41:12.563Z,66.08
2022-07-25T18:41:56.196Z,66.28
2022-07-25T18:42:55.182Z,66.28
2022-07-25T18:43:59.433Z,66.85
2022-07-25T18:44:56.152Z,67.18
2022-07-25T18:45:55.234Z,67.67
2022-07-25T18:46:55.947Z,67.08
2022-07-25T18:47:57.024Z,67.27
2022-07-25T18:48:55.138Z,67.08
2022-07-25T18:49:55.987Z,66.98
2022-07-25T18:50:55.247Z,67.38
2022-07-25T18:51:58.790Z,67.08
2022-07-25T18:52:55.057Z,65.78
2022-07-25T18:53:55.024Z,65.29
2022-07-25T18:54:56.850Z,65.69
2022-07-25T18:55:59.659Z,65.49
2022-07-25T18:56:56.944Z,65.69
2022-07-25T18:57:56.447Z,65.89
2022-07-25T18:58:57.843Z,68.07
2022-07-25T18:59:58.303Z,67.27
2022-07-25T19:00:55.933Z,67.38
2022-07-25T19:01:56.509Z,67.38
2022-07-25T19:02:56.374Z,68.46
2022-07-25T19:03:58.881Z,67.38
2022-07-25T19:04:58.973Z,67.71
2022-07-25T19:06:01.234Z,68.00
2022-07-25T19:06:59.582Z,69.29
2022-07-25T19:07:57.722Z,67.60
2022-07-25T19:08:54.850Z,67.80
2022-07-25T19:09:56.970Z,67.41
2022-07-25T19:10:57.444Z,70.18
2022-07-25T19:12:00.027Z,68.00
2022-07-25T19:13:56.619Z,67.64
2022-07-25T19:14:57.973Z,66.94
2022-07-25T19:15:54.920Z,67.94
2022-07-25T19:16:56.715Z,69.13
2022-07-25T19:17:56.856Z,68.33
2022-07-25T19:18:57.162Z,66.55
2022-07-25T19:19:56.714Z,67.14
2022-07-25T19:20:57.955Z,67.54
2022-07-25T19:21:55.429Z,70.12
2022-07-25T19:22:54.836Z,69.36
2022-07-25T19:23:56.960Z,70.25
2022-07-25T19:24:54.675Z,70.02
2022-07-25T19:25:57.206Z,69.46
2022-07-25T19:26:54.697Z,69.49
2022-07-25T19:27:54.661Z,70.06
2022-07-25T19:28:54.635Z,69.46
2022-07-25T19:29:54.617Z,69.53
2022-07-25T19:30:54.615Z,69.32
2022-07-25T19:31:54.610Z,69.43
2022-07-25T19:32:54.593Z,70.02
2022-07-25T19:33:54.579Z,69.46
2022-07-25T19:34:54.579Z,69.46
2022-07-25T19:35:54.556Z,69.32
2022-07-25T19:36:54.545Z,69.76
2022-07-25T19:37:54.535Z,69.76
2022-07-25T19:38:54.539Z,69.85
2022-07-25T19:39:55.454Z,69.66
2022-07-25T19:40:54.500Z,69.66
2022-07-25T19:41:54.489Z,69.96
2022-07-25T19:42:54.476Z,70.06
2022-07-25T19:43:54.513Z,69.96
2022-07-25T19:44:54.464Z,70.65
2022-07-25T19:45:54.580Z,70.65
2022-07-25T19:46:54.450Z,71.45
2022-07-25T19:47:54.428Z,71.64
2022-07-25T19:48:54.440Z,71.98
2022-07-25T19:49:54.969Z,72.17
2022-07-25T19:51:09.298Z,72.34
2022-07-25T19:51:55.396Z,72.67
2022-07-25T19:52:54.551Z,72.77
2022-07-25T19:53:54.361Z,72.87
2022-07-25T19:54:54.350Z,73.07
2022-07-25T19:55:54.371Z,73.37
2022-07-25T19:56:54.348Z,73.60
2022-07-25T19:57:54.316Z,74.30
2022-07-25T19:58:54.320Z,74.60
2022-07-25T19:59:54.328Z,74.60
2022-07-25T20:00:54.290Z,74.40
2022-07-25T20:01:54.358Z,74.99
2022-07-25T20:02:54.381Z,75.10
2022-07-25T20:03:54.269Z,75.10
2022-07-25T20:04:58.591Z,75.10
2022-07-25T20:06:18.014Z,75.69
2022-07-25T20:06:55.998Z,75.89
2022-07-25T20:08:00.091Z,76.53
2022-07-25T20:08:54.219Z,76.23
2022-07-25T20:09:54.198Z,76.53
2022-07-25T20:10:54.186Z,76.72
2022-07-25T20:11:54.189Z,77.22
2022-07-25T20:12:56.936Z,77.62
2022-07-25T20:13:55.162Z,77.72
2022-07-25T20:14:54.163Z,78.25
2022-07-25T20:15:54.150Z,78.55
2022-07-25T20:16:54.159Z,79.45
2022-07-25T20:17:54.114Z,79.85
2022-07-25T20:18:54.108Z,79.69
2022-07-25T20:19:54.099Z,79.88
2022-07-25T20:20:54.087Z,80.18
2022-07-25T20:21:54.090Z,80.42
2022-07-25T20:22:54.069Z,80.32
2022-07-25T20:23:54.058Z,80.62
2022-07-25T20:24:54.040Z,81.12
2022-07-25T20:25:54.051Z,81.32
2022-07-25T20:26:54.018Z,81.62
2022-07-25T20:27:54.018Z,81.96
2022-07-25T20:28:53.989Z,82.06
2022-07-25T20:29:53.979Z,82.45
2022-07-25T20:30:54.094Z,82.35
2022-07-25T20:31:53.977Z,82.45
2022-07-25T20:32:53.965Z,82.26
2022-07-25T20:33:53.950Z,82.45
2022-07-25T20:34:53.930Z,82.65
2022-07-25T20:35:53.922Z,82.35
2022-07-25T20:36:53.904Z,82.95
2022-07-25T20:37:53.903Z,83.35
2022-07-25T20:38:53.897Z,83.25
2022-07-25T20:39:53.876Z,82.95
2022-07-25T20:40:53.867Z,83.05
2022-07-25T20:41:53.846Z,83.65
2022-07-25T20:42:53.852Z,83.39
2022-07-25T20:43:53.843Z,83.75
2022-07-25T20:44:53.831Z,84.05
2022-07-25T20:45:53.901Z,84.15
2022-07-25T20:46:53.793Z,84.29
2022-07-25T20:47:53.785Z,84.19
2022-07-25T20:48:53.798Z,84.19
2022-07-25T20:49:53.796Z,84.69
2022-07-25T20:50:53.774Z,84.49
2022-07-25T20:51:54.708Z,84.49
2022-07-25T20:52:53.737Z,84.79
2022-07-25T20:53:53.821Z,84.79
2022-07-25T20:54:53.703Z,84.39
2022-07-25T20:55:53.708Z,84.49
2022-07-25T20:56:53.699Z,84.59
2022-07-25T20:57:53.694Z,84.89
2022-07-25T20:58:53.671Z,84.99
2022-07-25T20:59:53.656Z,85.69
2022-07-25T21:00:53.693Z,85.23
2022-07-25T21:01:53.704Z,85.39
2022-07-25T21:02:53.687Z,85.99
2022-07-25T21:03:53.613Z,85.88
2022-07-25T21:04:53.606Z,86.22
2022-07-25T21:05:53.593Z,86.22
2022-07-25T21:06:53.580Z,85.93
2022-07-25T21:07:53.596Z,85.72
2022-07-25T21:08:53.560Z,86.33
2022-07-25T21:09:53.556Z,86.43
2022-07-25T21:10:53.534Z,86.43
2022-07-25T21:11:53.523Z,86.33
2022-07-25T21:12:53.537Z,86.52
2022-07-25T21:13:53.517Z,86.63
2022-07-25T21:14:53.494Z,86.52
2022-07-25T21:15:53.488Z,86.43
2022-07-25T21:16:53.574Z,86.52
2022-07-25T21:17:53.466Z,86.52
2022-07-25T21:18:53.466Z,86.27
2022-07-25T21:19:53.471Z,86.72
2022-07-25T21:20:53.436Z,86.63
2022-07-25T21:21:53.433Z,86.87
2022-07-25T21:22:53.410Z,87.87
2022-07-25T21:23:53.403Z,87.76
2022-07-25T21:24:53.390Z,87.96
2022-07-25T21:25:53.397Z,87.76
2022-07-25T21:26:53.388Z,87.87
2022-07-25T21:27:53.358Z,88.06
2022-07-25T21:28:53.354Z,88.37
2022-07-25T21:29:53.345Z,88.67
2022-07-25T21:30:53.331Z,88.46
2022-07-25T21:31:54.356Z,88.67
2022-07-25T21:32:53.327Z,88.96
2022-07-25T21:33:53.298Z,88.86
2022-07-25T21:34:53.285Z,88.56
2022-07-25T21:35:53.940Z,88.17
2022-07-25T21:36:53.288Z,88.26
2022-07-25T21:37:53.281Z,87.66
2022-07-25T21:38:53.252Z,87.76
2022-07-25T21:39:53.237Z,87.57
2022-07-25T21:40:53.228Z,88.01
2022-07-25T21:41:54.933Z,88.51
2022-07-25T21:42:53.211Z,89.75
2022-07-25T21:43:53.222Z,90.84
2022-07-25T21:44:53.189Z,91.15
2022-07-25T21:45:53.256Z,91.53
2022-07-25T21:46:53.165Z,91.63
2022-07-25T21:47:53.166Z,91.44
2022-07-25T21:48:53.186Z,91.58
2022-07-25T21:49:53.155Z,92.18
2022-07-25T21:50:53.117Z,92.28
2022-07-25T21:51:53.111Z,92.08
2022-07-25T21:52:53.094Z,92.18
2022-07-25T21:53:53.103Z,92.68
2022-07-25T21:54:53.091Z,92.88
2022-07-25T21:55:53.091Z,92.38
2022-07-25T21:56:53.056Z,91.93
2022-07-25T21:57:53.059Z,92.18
2022-07-25T21:58:53.030Z,91.88
2022-07-25T21:59:53.050Z,91.67
2022-07-25T22:00:53.091Z,91.38
2022-07-25T22:01:53.021Z,91.78
2022-07-25T22:02:52.988Z,92.28
2022-07-25T22:03:53.034Z,92.18
2022-07-25T22:04:52.966Z,91.28
2022-07-25T22:05:52.967Z,91.38
2022-07-25T22:06:52.946Z,91.38
2022-07-25T22:07:52.944Z,91.17
2022-07-25T22:08:52.944Z,91.17
2022-07-25T22:09:52.913Z,91.67
2022-07-25T22:10:52.926Z,91.28
2022-07-25T22:11:52.904Z,90.48
2022-07-25T22:12:52.880Z,90.58
2022-07-25T22:13:52.879Z,90.88
2022-07-25T22:14:52.863Z,90.58
2022-07-25T22:15:52.858Z,90.08
2022-07-25T22:16:52.922Z,90.58
2022-07-25T22:17:52.831Z,90.58
2022-07-25T22:18:52.835Z,90.67
2022-07-25T22:19:52.821Z,90.17
2022-07-25T22:20:52.804Z,90.08
2022-07-25T22:21:52.811Z,90.58
2022-07-25T22:22:52.773Z,90.32
2022-07-25T22:23:52.760Z,90.58
2022-07-25T22:24:52.761Z,90.48
2022-07-25T22:25:52.765Z,90.58
2022-07-25T22:26:52.741Z,90.78
2022-07-25T22:27:52.744Z,90.88
2022-07-25T22:28:52.720Z,90.08
2022-07-25T22:29:52.713Z,90.08
2022-07-25T22:30:52.695Z,90.17
2022-07-25T22:31:52.785Z,90.48
2022-07-25T22:32:52.683Z,90.78
2022-07-25T22:34:00.307Z,90.67
2022-07-25T22:36:03.029Z,90.17
2022-07-25T22:37:02.981Z,90.37
2022-07-25T22:38:03.017Z,90.58
2022-07-25T22:39:02.974Z,90.72
2022-07-25T22:40:03.024Z,90.37
2022-07-25T22:41:02.928Z,90.78
2022-07-25T22:42:02.911Z,90.88
2022-07-25T22:43:02.910Z,90.17
2022-07-25T22:44:02.883Z,90.92
2022-07-25T22:45:02.865Z,90.78
2022-07-25T22:46:02.953Z,91.42
2022-07-25T22:47:02.851Z,90.92
2022-07-25T22:48:02.830Z,91.38
2022-07-25T22:49:02.864Z,91.42
2022-07-25T22:50:02.820Z,90.72
2022-07-25T22:51:02.818Z,90.92
2022-07-25T22:52:02.790Z,91.32
2022-07-25T22:53:02.778Z,91.22
2022-07-25T22:54:02.776Z,91.22
2022-07-25T22:55:02.792Z,91.82
2022-07-25T22:56:02.750Z,91.72
2022-07-25T22:57:02.758Z,92.32
2022-07-25T22:58:02.734Z,91.82
2022-07-25T22:59:02.717Z,93.02
2022-07-25T23:00:02.718Z,92.93
2022-07-25T23:01:02.704Z,93.12
2022-07-25T23:02:02.689Z,93.52
2022-07-25T23:03:02.745Z,93.62
2022-07-25T23:04:02.791Z,93.77
2022-07-25T23:05:02.658Z,93.87
2022-07-25T23:06:02.662Z,94.07
2022-07-25T23:07:02.641Z,94.87
2022-07-25T23:08:02.642Z,95.37
2022-07-25T23:09:02.620Z,95.67
2022-07-25T23:10:02.604Z,94.77
2022-07-25T23:11:02.593Z,95.07
2022-07-25T23:12:02.592Z,96.12
2022-07-25T23:13:02.573Z,95.62
2022-07-25T23:14:02.558Z,95.21
2022-07-25T23:15:02.755Z,96.02
2022-07-25T23:16:03.381Z,96.06
2022-07-25T23:17:02.662Z,95.76
2022-07-25T23:18:02.519Z,96.26
2022-07-25T23:19:02.520Z,96.56
2022-07-25T23:20:02.543Z,96.77
2022-07-25T23:21:11.285Z,96.77
2022-07-25T23:23:12.948Z,97.06
2022-07-25T23:24:12.905Z,97.17
2022-07-25T23:25:13.053Z,97.67
2022-07-25T23:26:13.072Z,97.47
2022-07-25T23:27:12.932Z,97.57
2022-07-25T23:28:12.753Z,97.77
2022-07-25T23:29:12.743Z,97.72
2022-07-25T23:30:12.745Z,98.52
2022-07-25T23:31:12.758Z,98.22
2022-07-25T23:32:12.714Z,98.22
2022-07-25T23:33:12.703Z,97.52
2022-07-25T23:34:12.679Z,97.92
2022-07-25T23:35:12.678Z,98.32
2022-07-25T23:36:12.668Z,98.52
2022-07-25T23:37:12.662Z,98.32
2022-07-25T23:38:12.652Z,98.32
2022-07-25T23:39:14.881Z,98.62
2022-07-25T23:40:12.626Z,98.72
2022-07-25T23:41:12.616Z,98.82
2022-07-25T23:42:12.601Z,98.82
2022-07-25T23:43:12.622Z,98.62
2022-07-25T23:44:12.592Z,98.42
2022-07-25T23:45:12.578Z,98.36
2022-07-25T23:46:12.565Z,98.36
2022-07-25T23:47:12.604Z,98.26
2022-07-25T23:48:12.536Z,98.66
2022-07-25T23:49:13.126Z,98.46
2022-07-25T23:50:12.534Z,98.46
2022-07-25T23:51:12.511Z,98.82
2022-07-25T23:52:12.497Z,98.57
2022-07-25T23:53:12.482Z,98.92
2022-07-25T23:54:12.487Z,98.72
2022-07-25T23:55:12.462Z,98.66
2022-07-25T23:56:15.072Z,98.57
2022-07-25T23:57:12.447Z,98.77
2022-07-25T23:58:12.449Z,98.97
2022-07-25T23:59:12.449Z,98.57
